Time;durP1;ratioP1;P1;durP2;ratioP2;P2;SDS_P1;SDS_P2;PMS_P1;PMS_P2;Temp;Humidity;BMP_temperature;BMP_pressure;BME280_temperature;BME280_humidity;BME280_pressure;Samples;Min_cycle;Max_cycle;Signal;HPM_P1;HPM_P2
2023/04/17 00:02:17;;;;;;;1.60;0.80;;;15.10;64.40;;;;;;5051029;28;19908;-86
2023/04/17 00:04:44;;;;;;;3.33;1.13;;;15.00;64.70;;;;;;5051137;28;20025;-85
2023/04/17 00:07:10;;;;;;;3.03;1.00;;;15.00;65.90;;;;;;5051759;28;20025;-86
2023/04/17 00:09:36;;;;;;;1.77;0.80;;;14.90;65.40;;;;;;5051186;28;20033;-84
2023/04/17 00:12:02;;;;;;;2.25;1.00;;;15.00;64.80;;;;;;5051520;28;20041;-84
2023/04/17 00:14:27;;;;;;;;;;;14.90;67.50;;;;;;5052792;28;20025;-85
2023/04/17 00:16:53;;;;;;;3.17;1.10;;;14.90;67.90;;;;;;5051824;28;19908;-84
2023/04/17 00:19:19;;;;;;;4.88;1.13;;;14.80;69.50;;;;;;5052241;28;20037;-85
2023/04/17 00:21:44;;;;;;;;;;;14.70;71.30;;;;;;5051996;28;20025;-84
2023/04/17 00:24:11;;;;;;;2.63;1.10;;;14.60;72.70;;;;;;5053123;28;19912;-85
2023/04/17 00:26:37;;;;;;;2.67;1.23;;;14.50;74.00;;;;;;5052036;28;20078;-84
2023/04/17 00:29:03;;;;;;;;;;;14.50;74.40;;;;;;5053649;28;20100;-85
2023/04/17 00:31:29;;;;;;;3.45;0.80;;;14.40;75.40;;;;;;5052470;28;20325;-87
2023/04/17 00:33:55;;;;;;;2.08;0.85;;;14.40;76.60;;;;;;5052253;28;20031;-87
2023/04/17 00:36:20;;;;;;;;;;;14.40;77.30;;;;;;5052863;28;20025;-88
2023/04/17 00:38:46;;;;;;;3.28;1.45;;;14.30;76.70;;;;;;5052573;28;19904;-89
2023/04/17 00:41:11;;;;;;;;;;;14.30;78.50;;;;;;5052540;28;20035;-86
2023/04/17 00:43:38;;;;;;;4.93;1.33;;;14.30;78.40;;;;;;5052239;28;20003;-87
2023/04/17 00:46:04;;;;;;;4.38;1.10;;;14.30;78.70;;;;;;5051002;28;20021;-83
2023/04/17 00:48:31;;;;;;;2.78;1.30;;;14.40;77.60;;;;;;5051307;28;20074;-85
2023/04/17 00:51:02;;;;;;;2.97;1.23;;;14.30;77.40;;;;;;5051467;28;20055;-86
2023/04/17 00:53:30;;;;;;;4.90;1.48;;;14.30;78.60;;;;;;5050694;28;20505;-83
2023/04/17 00:55:57;;;;;;;2.33;0.85;;;14.30;79.40;;;;;;5050511;28;20029;-87
2023/04/17 00:58:24;;;;;;;2.92;1.40;;;14.30;78.30;;;;;;5051771;28;20033;-84
2023/04/17 01:00:51;;;;;;;3.00;1.42;;;14.30;77.60;;;;;;5051215;28;20481;-85
2023/04/17 01:03:16;;;;;;;3.92;1.80;;;14.30;78.20;;;;;;5052440;28;20025;-85
2023/04/17 01:05:47;;;;;;;;;;;14.30;78.50;;;;;;5051249;28;20087;-85
2023/04/17 01:08:13;;;;;;;2.20;1.20;;;14.30;77.40;;;;;;5051001;28;19973;-82
2023/04/17 01:10:39;;;;;;;2.30;1.30;;;14.40;77.30;;;;;;5050839;28;20032;-85
2023/04/17 01:13:05;;;;;;;;;;;14.40;77.60;;;;;;5051524;28;20048;-86
2023/04/17 01:15:32;;;;;;;2.30;1.13;;;14.40;76.70;;;;;;5051148;28;19905;-86
2023/04/17 01:17:58;;;;;;;6.22;1.30;;;14.40;77.60;;;;;;5051629;28;20025;-86
2023/04/17 01:20:30;;;;;;;;;;;14.40;77.70;;;;;;5051585;28;20131;-86
2023/04/17 01:22:59;;;;;;;2.65;1.27;;;14.40;79.10;;;;;;5051340;28;19909;-86
2023/04/17 01:25:27;;;;;;;2.78;1.25;;;14.40;79.00;;;;;;5051728;28;20021;-86
2023/04/17 01:27:53;;;;;;;2.67;1.20;;;14.20;80.20;;;;;;5051556;28;20033;-86
2023/04/17 01:30:19;;;;;;;;;;;14.30;80.30;;;;;;5051233;28;20377;-86
2023/04/17 01:32:44;;;;;;;2.50;1.23;;;14.20;81.30;;;;;;5051366;28;20393;-86
2023/04/17 01:35:10;;;;;;;;;;;14.20;81.50;;;;;;5051314;28;20049;-84
2023/04/17 01:37:36;;;;;;;4.97;1.55;;;14.10;83.00;;;;;;5051373;28;20007;-86
2023/04/17 01:40:04;;;;;;;;;;;14.10;82.40;;;;;;5051267;28;20028;-84
2023/04/17 01:42:29;;;;;;;2.53;1.35;;;14.10;82.20;;;;;;5050792;28;19913;-85
2023/04/17 01:44:55;;;;;;;;;;;14.10;82.10;;;;;;5051451;28;20086;-85
2023/04/17 01:47:20;;;;;;;6.03;1.65;;;14.10;82.70;;;;;;5051809;28;19909;-86
2023/04/17 01:49:46;;;;;;;;;;;14.10;81.90;;;;;;5050094;28;20468;-85
2023/04/17 01:52:12;;;;;;;2.35;1.35;;;14.10;82.50;;;;;;5052251;28;20617;-86
2023/04/17 01:54:37;;;;;;;;;;;14.00;84.20;;;;;;5051445;28;20021;-85
2023/04/17 01:57:03;;;;;;;2.92;1.38;;;14.00;82.90;;;;;;5051149;28;19905;-85
2023/04/17 01:59:28;;;;;;;;;;;14.00;84.20;;;;;;5050810;28;20086;-84
2023/04/17 02:01:55;;;;;;;5.10;1.98;;;14.00;84.10;;;;;;5050902;28;19943;-85
2023/04/17 02:04:21;;;;;;;4.03;1.98;;;14.00;83.70;;;;;;5051161;28;20028;-85
2023/04/17 02:06:47;;;;;;;;;;;13.90;85.50;;;;;;5051460;28;20017;-85
2023/04/17 02:09:12;;;;;;;6.57;2.00;;;13.90;84.60;;;;;;5050954;28;19908;-86
2023/04/17 02:11:38;;;;;;;;;;;13.80;86.40;;;;;;5051436;28;20043;-86
2023/04/17 02:14:03;;;;;;;4.28;2.08;;;13.80;86.50;;;;;;5050758;28;19973;-86
2023/04/17 02:16:30;;;;;;;;;;;13.80;86.60;;;;;;5050714;28;20041;-84
2023/04/17 02:18:56;;;;;;;2.20;1.50;;;13.80;85.60;;;;;;5048065;28;19908;-86
2023/04/17 02:21:22;;;;;;;3.60;2.20;;;13.80;86.70;;;;;;5051376;28;20063;-86
2023/04/17 02:23:47;;;;;;;;;;;13.80;86.10;;;;;;5051238;28;20104;-86
2023/04/17 02:26:13;;;;;;;3.30;1.20;;;13.90;85.10;;;;;;5049504;28;20367;-86
2023/04/17 02:28:42;;;;;;;4.07;2.10;;;13.90;85.20;;;;;;5053106;28;20095;-86
2023/04/17 02:31:08;;;;;;;3.10;1.92;;;14.00;83.30;;;;;;5054292;28;20028;-86
2023/04/17 02:33:37;;;;;;;4.22;1.85;;;14.00;82.30;;;;;;5053864;28;20132;-86
2023/04/17 02:36:05;;;;;;;4.13;1.10;;;14.00;81.60;;;;;;5054202;28;20017;-85
2023/04/17 02:38:30;;;;;;;5.63;1.40;;;14.00;82.80;;;;;;5054129;28;20550;-85
2023/04/17 02:40:56;;;;;;;;;;;14.00;82.70;;;;;;5053226;28;20028;-86
2023/04/17 02:43:22;;;;;;;3.55;1.92;;;14.00;82.50;;;;;;5054076;28;19955;-86
2023/04/17 02:45:47;;;;;;;;;;;14.00;82.80;;;;;;5054089;28;20032;-86
2023/04/17 02:48:13;;;;;;;4.32;1.63;;;14.00;82.60;;;;;;5053726;28;19908;-86
2023/04/17 02:50:39;;;;;;;;;;;14.00;83.40;;;;;;5053838;28;20060;-85
2023/04/17 02:53:05;;;;;;;3.10;1.50;;;14.00;83.80;;;;;;5053962;28;19913;-86
2023/04/17 02:55:30;;;;;;;;;;;13.90;84.80;;;;;;5054291;28;20057;-85
2023/04/17 02:57:56;;;;;;;3.20;1.27;;;13.90;85.60;;;;;;5053673;28;20003;-85
2023/04/17 03:00:21;;;;;;;;;;;13.80;85.40;;;;;;5054382;28;20057;-86
2023/04/17 03:02:48;;;;;;;3.33;2.30;;;13.90;84.60;;;;;;5053757;28;19904;-85
2023/04/17 03:05:14;;;;;;;4.93;2.40;;;13.80;85.20;;;;;;5053681;28;20470;-86
2023/04/17 03:07:40;;;;;;;3.58;1.70;;;13.80;84.80;;;;;;5053356;28;20456;-86
2023/04/17 03:10:07;;;;;;;;;;;13.90;85.40;;;;;;5055505;28;20021;-85
2023/04/17 03:12:32;;;;;;;3.95;2.22;;;13.80;86.60;;;;;;5053351;28;19912;-86
2023/04/17 03:14:58;;;;;;;;;;;13.80;86.70;;;;;;5053558;28;20079;-85
2023/04/17 03:17:24;;;;;;;5.38;1.83;;;13.80;86.70;;;;;;5053156;28;19913;-86
2023/04/17 03:19:49;;;;;;;;;;;13.80;86.10;;;;;;5053534;28;20029;-86
2023/04/17 03:22:15;;;;;;;3.15;1.88;;;13.80;85.90;;;;;;5053620;28;19931;-87
2023/04/17 03:24:40;;;;;;;;;;;13.70;87.10;;;;;;5055120;28;20063;-86
2023/04/17 03:27:06;;;;;;;3.67;1.92;;;13.70;87.60;;;;;;5053313;28;19905;-86
2023/04/17 03:29:32;;;;;;;4.43;2.33;;;13.60;89.30;;;;;;5053094;28;20413;-86
2023/04/17 03:31:57;;;;;;;;;;;13.60;90.40;;;;;;5053177;28;20131;-86
2023/04/17 03:34:24;;;;;;;5.10;2.00;;;13.60;90.10;;;;;;5051034;28;19909;-86
2023/04/17 03:36:50;;;;;;;3.58;1.70;;;13.60;90.60;;;;;;5054307;28;20014;-86
2023/04/17 03:39:16;;;;;;;;;;;13.50;91.10;;;;;;5053389;28;20039;-86
2023/04/17 03:41:41;;;;;;;4.28;2.13;;;13.50;90.80;;;;;;5052687;28;19904;-86
2023/04/17 03:44:11;;;;;;;;;;;13.50;90.90;;;;;;5054371;28;20516;-85
2023/04/17 03:46:37;;;;;;;4.32;2.60;;;13.70;89.30;;;;;;5052975;28;19944;-86
2023/04/17 03:49:03;;;;;;;4.40;2.28;;;13.70;89.50;;;;;;5052739;28;20033;-86
2023/04/17 03:51:30;;;;;;;3.15;1.73;;;13.70;88.90;;;;;;5052752;28;20059;-85
2023/04/17 03:53:56;;;;;;;4.80;2.10;;;13.70;89.50;;;;;;5052610;28;20512;-86
2023/04/17 03:56:22;;;;;;;;;;;13.60;90.00;;;;;;5053389;28;20033;-86
2023/04/17 03:58:47;;;;;;;6.85;2.00;;;13.60;91.20;;;;;;5052855;28;19904;-86
2023/04/17 04:01:13;;;;;;;;;;;13.60;90.70;;;;;;5052595;28;20087;-86
2023/04/17 04:03:39;;;;;;;6.35;2.05;;;13.60;90.50;;;;;;5051746;28;19911;-86
2023/04/17 04:06:06;;;;;;;4.03;1.90;;;13.60;91.20;;;;;;5052352;28;20485;-86
2023/04/17 04:08:32;;;;;;;3.10;1.90;;;13.60;91.20;;;;;;5052430;28;20468;-86
2023/04/17 04:10:59;;;;;;;5.35;2.13;;;13.60;91.30;;;;;;5052459;28;20025;-86
2023/04/17 04:13:25;;;;;;;6.07;2.25;;;13.60;91.60;;;;;;5052401;28;20037;-86
2023/04/17 04:15:51;;;;;;;9.80;2.40;;;13.60;92.00;;;;;;5052441;28;20025;-86
2023/04/17 04:18:17;;;;;;;;;;;13.40;93.00;;;;;;5052667;28;20044;-85
2023/04/17 04:20:42;;;;;;;4.07;1.65;;;13.40;93.00;;;;;;5050767;28;20011;-86
2023/04/17 04:23:08;;;;;;;;;;;13.30;93.60;;;;;;5053061;28;20123;-86
2023/04/17 04:25:34;;;;;;;4.00;1.83;;;13.30;93.50;;;;;;5052120;28;20010;-85
2023/04/17 04:28:00;;;;;;;;;;;13.20;94.30;;;;;;5052472;28;20028;-85
2023/04/17 04:30:26;;;;;;;4.25;2.05;;;13.20;94.40;;;;;;5052000;28;19954;-85
2023/04/17 04:32:52;;;;;;;;;;;13.20;94.00;;;;;;5052476;28;20033;-86
2023/04/17 04:35:17;;;;;;;3.22;1.80;;;13.30;94.00;;;;;;5051724;28;20455;-86
2023/04/17 04:37:45;;;;;;;;;;;13.30;93.80;;;;;;5049571;28;20592;-86
2023/04/17 04:40:11;;;;;;;;;;;13.30;94.00;;;;;;5051386;28;19905;-86
2023/04/17 04:42:38;;;;;;;5.45;1.92;;;13.30;93.90;;;;;;5052091;28;20380;-86
2023/04/17 04:45:05;;;;;;;3.10;1.90;;;13.30;93.70;;;;;;5053043;28;20116;-85
2023/04/17 04:47:30;;;;;;;5.10;2.47;;;13.40;93.60;;;;;;5051582;28;20033;-85
2023/04/17 04:49:56;;;;;;;;;;;13.40;93.70;;;;;;5050453;28;20024;-85
2023/04/17 04:52:22;;;;;;;5.68;2.03;;;13.40;93.00;;;;;;5051164;28;19913;-86
2023/04/17 04:54:47;;;;;;;;;;;13.40;94.10;;;;;;5052418;28;20119;-85
2023/04/17 04:57:13;;;;;;;7.22;1.90;;;13.50;93.20;;;;;;5052840;28;19951;-85
2023/04/17 04:59:38;;;;;;;;;;;13.70;92.30;;;;;;5052180;28;20025;-86
2023/04/17 05:02:04;;;;;;;4.50;1.83;;;13.70;92.40;;;;;;5050807;28;20357;-86
2023/04/17 05:04:29;;;;;;;;;;;13.70;92.30;;;;;;5049688;28;20029;-86
2023/04/17 05:06:58;;;;;;;5.35;1.73;;;13.70;92.30;;;;;;5051743;28;19905;-86
2023/04/17 05:09:23;;;;;;;5.25;2.45;;;13.70;92.80;;;;;;5051837;28;20032;-86
2023/04/17 05:11:51;;;;;;;;;;;13.70;92.70;;;;;;5051991;28;20036;-85
2023/04/17 05:14:17;;;;;;;3.40;1.88;;;13.70;92.50;;;;;;5050069;28;19904;-86
2023/04/17 05:16:42;;;;;;;;;;;13.80;92.30;;;;;;5051876;28;20508;-86
2023/04/17 05:19:08;;;;;;;3.42;1.88;;;13.90;91.50;;;;;;5049025;28;20871;-86
2023/04/17 05:21:34;;;;;;;4.10;2.17;;;14.00;91.10;;;;;;5049604;28;20036;-86
2023/04/17 05:23:59;;;;;;;;;;;14.10;91.20;;;;;;5051772;28;20032;-86
2023/04/17 05:26:25;;;;;;;10.15;2.22;;;14.10;91.60;;;;;;5051171;28;19952;-86
2023/04/17 05:28:51;;;;;;;3.22;2.00;;;14.10;91.30;;;;;;5051345;28;20032;-87
2023/04/17 05:31:16;;;;;;;;;;;14.20;90.90;;;;;;5050696;28;20025;-86
2023/04/17 05:33:42;;;;;;;5.32;2.38;;;14.40;89.80;;;;;;5050699;28;19916;-84
2023/04/17 05:36:08;;;;;;;;;;;14.30;90.60;;;;;;5049886;28;20470;-86
2023/04/17 05:38:33;;;;;;;4.78;2.92;;;14.40;89.00;;;;;;5050979;28;19924;-86
2023/04/17 05:41:00;;;;;;;4.15;2.13;;;14.40;91.00;;;;;;5050534;28;20076;-84
2023/04/17 05:43:26;;;;;;;4.63;2.25;;;14.40;90.50;;;;;;5048852;28;20021;-85
2023/04/17 05:45:52;;;;;;;;;;;14.40;89.20;;;;;;5051687;28;20082;-86
2023/04/17 05:48:18;;;;;;;5.05;2.38;;;14.40;90.60;;;;;;5051266;28;19905;-86
2023/04/17 05:50:43;;;;;;;;;;;14.30;90.70;;;;;;5050767;28;20051;-85
2023/04/17 05:53:09;;;;;;;4.47;2.20;;;14.30;90.50;;;;;;5051801;28;19921;-86
2023/04/17 05:55:35;;;;;;;;;;;14.40;90.00;;;;;;5050888;28;20051;-85
2023/04/17 05:58:01;;;;;;;23.15;2.67;;;14.40;89.70;;;;;;5049786;28;19905;-86
2023/04/17 06:00:27;;;;;;;4.00;2.17;;;14.40;90.60;;;;;;5051202;28;20477;-86
2023/04/17 06:02:53;;;;;;;4.38;2.30;;;14.40;90.60;;;;;;5052619;28;20048;-86
2023/04/17 06:05:20;;;;;;;3.85;2.20;;;14.60;89.70;;;;;;5054854;28;20598;-86
2023/04/17 06:07:46;;;;;;;3.40;2.05;;;14.60;90.60;;;;;;5053812;28;20501;-86
2023/04/17 06:10:11;;;;;;;;;;;14.70;88.40;;;;;;5053623;28;20017;-86
2023/04/17 06:12:37;;;;;;;5.10;2.30;;;14.70;89.50;;;;;;5053681;28;20312;-86
2023/04/17 06:15:04;;;;;;;5.07;2.35;;;14.70;89.30;;;;;;5054630;28;20082;-86
2023/04/17 06:17:30;;;;;;;4.85;2.35;;;14.60;90.40;;;;;;5052774;28;20037;-85
2023/04/17 06:19:56;;;;;;;3.95;2.20;;;14.70;90.00;;;;;;5054409;28;20021;-86
2023/04/17 06:22:21;;;;;;;;;;;14.80;90.00;;;;;;5053335;28;20040;-86
2023/04/17 06:24:47;;;;;;;5.20;2.63;;;14.80;87.80;;;;;;5052243;28;19908;-86
2023/04/17 06:27:13;;;;;;;;;;;14.80;87.40;;;;;;5054747;28;20036;-84
2023/04/17 06:29:39;;;;;;;8.05;2.85;;;15.00;85.80;;;;;;5054460;28;19909;-86
2023/04/17 06:32:05;;;;;;;7.28;2.28;;;15.10;86.90;;;;;;5054254;28;20040;-86
2023/04/17 06:34:31;;;;;;;;;;;15.10;85.30;;;;;;5054832;28;20033;-86
2023/04/17 06:36:58;;;;;;;10.02;3.60;;;15.10;86.10;;;;;;5054401;28;19943;-86
2023/04/17 06:39:23;;;;;;;8.00;3.25;;;14.90;86.60;;;;;;5053854;28;20033;-86
2023/04/17 06:41:49;;;;;;;;;;;15.00;86.20;;;;;;5053887;28;20192;-85
2023/04/17 06:44:15;;;;;;;5.00;3.00;;;15.00;85.50;;;;;;5053450;28;19905;-86
2023/04/17 06:46:40;;;;;;;;;;;14.90;86.60;;;;;;5054704;28;20159;-86
2023/04/17 06:49:06;;;;;;;5.57;2.78;;;14.80;87.20;;;;;;5052568;28;19905;-86
2023/04/17 06:51:32;;;;;;;;;;;14.80;88.70;;;;;;5054722;28;20494;-86
2023/04/17 06:53:58;;;;;;;4.32;2.20;;;14.80;88.00;;;;;;5051993;28;19919;-86
2023/04/17 06:56:24;;;;;;;;;;;14.80;88.30;;;;;;5052278;28;20021;-86
2023/04/17 06:58:52;;;;;;;7.80;2.53;;;14.70;88.60;;;;;;5053934;28;19916;-86
2023/04/17 07:01:18;;;;;;;6.65;2.85;;;14.70;88.10;;;;;;5053693;28;20029;-86
2023/04/17 07:03:45;;;;;;;4.10;2.70;;;14.70;89.00;;;;;;5052294;28;20551;-86
2023/04/17 07:06:11;;;;;;;5.70;2.20;;;14.70;89.90;;;;;;5053620;28;20128;-86
2023/04/17 07:08:37;;;;;;;;;;;14.70;89.80;;;;;;5053890;28;20041;-86
2023/04/17 07:11:02;;;;;;;4.40;2.58;;;14.80;90.30;;;;;;5053319;28;19905;-86
2023/04/17 07:13:30;;;;;;;;;;;14.80;89.00;;;;;;5053000;28;20040;-86
2023/04/17 07:15:57;;;;;;;3.50;2.30;;;14.80;87.70;;;;;;5053608;28;20296;-85
2023/04/17 07:18:25;;;;;;;3.92;2.65;;;14.90;88.60;;;;;;5053523;28;20033;-86
2023/04/17 07:20:51;;;;;;;5.20;2.50;;;15.00;87.10;;;;;;5053689;28;20025;-86
2023/04/17 07:23:16;;;;;;;;;;;14.90;89.30;;;;;;5053896;28;20103;-85
2023/04/17 07:25:42;;;;;;;5.00;2.58;;;14.90;89.10;;;;;;5052901;28;19909;-85
2023/04/17 07:28:08;;;;;;;;;;;14.90;90.20;;;;;;5052162;28;20028;-85
2023/04/17 07:30:34;;;;;;;4.47;2.80;;;14.70;91.90;;;;;;5051988;28;19931;-86
2023/04/17 07:33:00;;;;;;;5.60;2.63;;;14.60;91.90;;;;;;5051800;28;20037;-84
2023/04/17 07:35:26;;;;;;;9.10;2.88;;;14.60;92.70;;;;;;5051322;28;20040;-85
2023/04/17 07:37:52;;;;;;;;;;;14.40;93.80;;;;;;5053097;28;20025;-87
2023/04/17 07:40:18;;;;;;;3.92;2.60;;;14.40;94.00;;;;;;5052153;28;19905;-88
2023/04/17 07:42:43;;;;;;;6.18;2.65;;;14.30;95.70;;;;;;5052985;28;20094;-86
2023/04/17 07:45:09;;;;;;;;;;;14.30;95.20;;;;;;5053060;28;20420;-88
2023/04/17 07:47:35;;;;;;;4.55;2.88;;;14.20;95.40;;;;;;5052664;28;19912;-85
2023/04/17 07:50:01;;;;;;;6.88;2.78;;;14.20;96.10;;;;;;5053173;28;20400;-85
2023/04/17 07:52:28;;;;;;;5.63;3.20;;;14.20;96.30;;;;;;5050988;28;20147;-83
2023/04/17 07:54:55;;;;;;;;;;;14.20;95.80;;;;;;5051835;28;20036;-85
2023/04/17 07:57:21;;;;;;;8.55;3.20;;;14.30;95.10;;;;;;5051394;28;19905;-86
2023/04/17 07:59:47;;;;;;;5.75;3.10;;;14.30;96.80;;;;;;5052621;28;20021;-86
2023/04/17 08:02:12;;;;;;;;;;;14.50;95.60;;;;;;5053171;28;20033;-86
2023/04/17 08:04:38;;;;;;;6.97;3.42;;;14.80;94.70;;;;;;5051839;28;19912;-87
2023/04/17 08:07:06;;;;;;;8.55;2.30;;;15.20;91.80;;;;;;5051830;28;20051;-87
2023/04/17 08:09:31;;;;;;;5.47;2.97;;;15.50;89.90;;;;;;5052766;28;20031;-86
2023/04/17 08:11:57;;;;;;;;;;;15.90;89.40;;;;;;5052896;28;20107;-86
2023/04/17 08:14:23;;;;;;;4.45;2.50;;;16.30;85.70;;;;;;5053996;28;19939;-86
2023/04/17 08:16:49;;;;;;;4.50;2.28;;;16.50;81.40;;;;;;5051022;28;20465;-87
2023/04/17 08:19:14;;;;;;;;;;;17.00;80.30;;;;;;5051500;28;20029;-86
2023/04/17 08:21:40;;;;;;;3.88;2.40;;;17.10;75.50;;;;;;5050209;28;19931;-84
2023/04/17 08:24:06;;;;;;;5.45;2.50;;;17.10;75.70;;;;;;5051033;28;20029;-86
2023/04/17 08:26:32;;;;;;;5.50;2.10;;;17.30;74.40;;;;;;5051375;28;20029;-87
2023/04/17 08:29:01;;;;;;;4.88;2.30;;;17.50;72.40;;;;;;5049975;28;20029;-86
2023/04/17 08:31:27;;;;;;;5.88;2.53;;;17.40;70.60;;;;;;5051819;28;20021;-86
2023/04/17 08:33:54;;;;;;;5.22;2.20;;;17.30;72.60;;;;;;5050402;28;20615;-86
2023/04/17 08:36:19;;;;;;;4.85;2.42;;;17.40;71.80;;;;;;5049931;28;20029;-86
2023/04/17 08:38:46;;;;;;;4.03;2.15;;;17.50;71.00;;;;;;5050587;28;20024;-86
2023/04/17 08:41:20;;;;;;;4.03;1.90;;;17.40;71.20;;;;;;5050212;28;20017;-87
2023/04/17 08:43:50;;;;;;;4.93;2.67;;;17.40;70.90;;;;;;5049975;28;20533;-85
2023/04/17 08:46:17;;;;;;;5.28;2.28;;;17.30;69.50;;;;;;5049854;28;20497;-86
2023/04/17 08:48:43;;;;;;;4.20;1.80;;;17.30;71.40;;;;;;5049376;28;20120;-87
2023/04/17 08:51:09;;;;;;;3.50;1.77;;;17.20;70.90;;;;;;5049527;28;20605;-84
2023/04/17 08:53:36;;;;;;;10.82;2.75;;;17.20;70.30;;;;;;5050562;28;20053;-85
2023/04/17 08:56:06;;;;;;;3.40;2.08;;;17.20;71.50;;;;;;5050960;28;20035;-86
2023/04/17 08:58:32;;;;;;;4.38;2.38;;;17.30;71.90;;;;;;5050175;28;20052;-87
2023/04/17 09:01:08;;;;;;;5.82;2.72;;;17.40;72.90;;;;;;5050007;28;20029;-88
2023/04/17 09:03:45;;;;;;;5.85;2.40;;;17.50;72.10;;;;;;5050229;28;20524;-87
2023/04/17 09:06:12;;;;;;;4.82;2.60;;;17.60;71.20;;;;;;5051849;28;20021;-85
2023/04/17 09:08:39;;;;;;;5.97;2.75;;;17.40;71.30;;;;;;5049368;28;20037;-85
2023/04/17 09:11:16;;;;;;;5.35;2.63;;;17.60;70.90;;;;;;5049783;28;20060;-87
2023/04/17 09:13:41;;;;;;;4.75;2.50;;;17.50;70.30;;;;;;5049949;28;20123;-87
2023/04/17 09:16:14;;;;;;;3.65;2.22;;;17.30;70.60;;;;;;5050513;28;20108;-87
2023/04/17 09:18:41;;;;;;;3.55;2.20;;;17.40;70.40;;;;;;5049878;28;20047;-87
2023/04/17 09:21:08;;;;;;;3.55;2.20;;;17.40;70.70;;;;;;5051790;28;20025;-87
2023/04/17 09:23:52;;;;;;;5.72;2.83;;;17.30;72.50;;;;;;5050700;28;20063;-85
2023/04/17 09:26:20;;;;;;;6.68;2.90;;;17.40;72.30;;;;;;5051732;28;20087;-86
2023/04/17 09:29:07;;;;;;;5.10;2.17;;;17.40;70.20;;;;;;5051246;28;20021;-86
2023/04/17 09:31:33;;;;;;;3.78;2.05;;;17.50;70.30;;;;;;5052330;28;20025;-86
2023/04/17 09:34:00;;;;;;;4.25;2.25;;;17.70;70.10;;;;;;5049752;28;20040;-87
2023/04/17 09:36:29;;;;;;;4.53;2.33;;;18.00;70.20;;;;;;5052720;28;20036;-87
2023/04/17 09:38:55;;;;;;;4.30;2.63;;;18.10;70.90;;;;;;5056042;28;20025;-87
2023/04/17 09:41:22;;;;;;;6.20;2.63;;;18.30;67.30;;;;;;5054108;28;20025;-87
2023/04/17 09:43:48;;;;;;;5.47;2.33;;;18.10;66.40;;;;;;5055392;28;20059;-86
2023/04/17 09:46:41;;;;;;;6.18;2.70;;;18.00;67.20;;;;;;5055585;28;20588;-86
2023/04/17 09:49:33;;;;;;;6.75;2.55;;;18.00;68.70;;;;;;5055409;28;20056;-85
2023/04/17 09:51:59;;;;;;;4.40;2.45;;;17.70;68.50;;;;;;5054424;28;20041;-87
2023/04/17 09:54:25;;;;;;;4.40;2.55;;;17.70;70.20;;;;;;5053885;28;20125;-85
2023/04/17 09:56:54;;;;;;;4.07;1.92;;;17.70;68.90;;;;;;5055272;28;20063;-86
2023/04/17 09:59:23;;;;;;;3.25;2.03;;;17.60;69.90;;;;;;5053633;28;20029;-87
2023/04/17 10:01:50;;;;;;;4.43;2.88;;;17.60;69.40;;;;;;5055135;28;20035;-87
2023/04/17 10:04:18;;;;;;;3.58;2.35;;;17.40;71.70;;;;;;5053433;28;20489;-85
2023/04/17 10:06:44;;;;;;;7.80;2.90;;;17.40;70.50;;;;;;5053541;28;20064;-85
2023/04/17 10:09:09;;;;;;;3.90;2.20;;;17.30;74.20;;;;;;5053712;28;20541;-85
2023/04/17 10:11:43;;;;;;;4.00;2.17;;;17.20;74.00;;;;;;5054657;28;20108;-87
2023/04/17 10:14:13;;;;;;;7.40;2.70;;;17.20;75.30;;;;;;5053600;28;20037;-86
2023/04/17 10:16:42;;;;;;;4.57;2.72;;;17.20;73.80;;;;;;5053523;28;20031;-85
2023/04/17 10:19:32;;;;;;;7.20;2.88;;;17.10;74.40;;;;;;5052654;28;20025;-87
2023/04/17 10:22:19;;;;;;;3.75;2.65;;;17.20;74.80;;;;;;5054590;28;20029;-87
2023/04/17 10:25:11;;;;;;;4.32;2.53;;;17.30;75.50;;;;;;5055183;28;20021;-87
2023/04/17 10:27:40;;;;;;;4.47;2.40;;;17.40;75.30;;;;;;5054512;28;20032;-87
2023/04/17 10:30:09;;;;;;;4.03;2.55;;;17.50;74.00;;;;;;5053951;28;20554;-86
2023/04/17 10:32:35;;;;;;;6.03;1.83;;;17.70;72.60;;;;;;5053319;28;20041;-87
2023/04/17 10:35:21;;;;;;;4.70;2.10;;;17.80;69.20;;;;;;5054645;28;20036;-87
2023/04/17 10:37:47;;;;;;;7.50;2.45;;;17.60;71.60;;;;;;5054353;28;20124;-86
2023/04/17 10:40:30;;;;;;;5.28;2.70;;;17.60;71.10;;;;;;5052933;28;20163;-87
2023/04/17 10:43:21;;;;;;;4.03;2.67;;;17.60;70.80;;;;;;5053307;28;20028;-86
2023/04/17 10:45:51;;;;;;;7.85;2.38;;;17.50;73.20;;;;;;5052531;28;20061;-87
2023/04/17 10:48:37;;;;;;;4.20;2.33;;;17.50;71.60;;;;;;5052168;28;20087;-84
2023/04/17 10:51:25;;;;;;;6.88;2.50;;;17.40;72.30;;;;;;5054014;28;20723;-86
2023/04/17 10:53:56;;;;;;;5.22;2.40;;;17.50;74.40;;;;;;5054129;28;20047;-87
2023/04/17 10:56:34;;;;;;;4.38;2.40;;;17.40;72.80;;;;;;5054120;28;20057;-86
2023/04/17 10:59:13;;;;;;;12.02;3.00;;;17.50;72.10;;;;;;5052840;28;20497;-87
2023/04/17 11:01:56;;;;;;;4.38;2.50;;;17.70;71.60;;;;;;5052571;28;20241;-84
2023/04/17 11:04:23;;;;;;;7.25;3.00;;;17.60;71.50;;;;;;5053308;28;20033;-86
2023/04/17 11:06:51;;;;;;;6.38;2.10;;;17.70;74.00;;;;;;5054183;28;20477;-85
2023/04/17 11:09:19;;;;;;;5.35;2.30;;;17.80;74.70;;;;;;5053995;28;20493;-87
2023/04/17 11:11:45;;;;;;;4.35;2.42;;;17.90;71.90;;;;;;5053716;28;20025;-87
2023/04/17 11:14:13;;;;;;;4.18;2.10;;;17.90;70.80;;;;;;5053585;28;20086;-86
2023/04/17 11:16:41;;;;;;;10.15;3.00;;;18.00;70.40;;;;;;5053738;28;20028;-86
2023/04/17 11:19:08;;;;;;;4.68;2.65;;;18.00;70.70;;;;;;5053843;28;20028;-86
2023/04/17 11:21:41;;;;;;;8.45;2.30;;;18.00;71.00;;;;;;5053519;28;20055;-87
2023/04/17 11:24:07;;;;;;;4.50;2.35;;;18.20;69.70;;;;;;5052349;28;20037;-86
2023/04/17 11:26:44;;;;;;;3.95;2.30;;;18.20;70.10;;;;;;5051463;28;20116;-86
2023/04/17 11:29:18;;;;;;;6.78;3.35;;;18.10;70.80;;;;;;5050901;28;20036;-87
2023/04/17 11:31:45;;;;;;;5.47;3.03;;;18.00;72.30;;;;;;5054609;28;20123;-86
2023/04/17 11:34:12;;;;;;;4.97;3.28;;;17.90;72.60;;;;;;5053342;28;20037;-86
2023/04/17 11:36:37;;;;;;;6.57;2.03;;;18.10;70.20;;;;;;5053355;28;20025;-86
2023/04/17 11:39:03;;;;;;;4.82;2.55;;;18.10;70.20;;;;;;5053260;28;20115;-87
2023/04/17 11:41:38;;;;;;;5.75;2.55;;;18.10;69.50;;;;;;5052952;28;20025;-86
2023/04/17 11:44:08;;;;;;;9.27;3.72;;;18.10;71.20;;;;;;5053222;28;20036;-85
2023/04/17 11:46:35;;;;;;;5.78;2.30;;;18.20;70.70;;;;;;5053153;28;20033;-86
2023/04/17 11:49:05;;;;;;;5.72;2.13;;;18.20;71.20;;;;;;5052612;28;20032;-86
2023/04/17 11:51:31;;;;;;;7.45;2.80;;;18.10;70.00;;;;;;5052310;28;20057;-86
2023/04/17 11:53:58;;;;;;;9.98;2.50;;;18.00;69.50;;;;;;5052847;28;20041;-86
2023/04/17 11:56:30;;;;;;;4.35;2.50;;;18.00;71.90;;;;;;5053106;28;20033;-87
2023/04/17 11:58:57;;;;;;;5.03;2.40;;;18.10;69.50;;;;;;5052984;28;20029;-86
2023/04/17 12:01:25;;;;;;;4.97;2.55;;;18.00;70.80;;;;;;5054299;28;20032;-87
2023/04/17 12:03:52;;;;;;;6.25;1.80;;;17.80;71.40;;;;;;5054139;28;20489;-87
2023/04/17 12:06:18;;;;;;;4.28;1.88;;;17.80;73.50;;;;;;5052143;28;20021;-87
2023/04/17 12:08:53;;;;;;;3.05;1.35;;;17.90;69.30;;;;;;5051324;28;20113;-86
2023/04/17 12:11:25;;;;;;;10.48;2.35;;;18.00;69.20;;;;;;5052573;28;20106;-86
2023/04/17 12:13:52;;;;;;;3.53;1.40;;;17.90;69.40;;;;;;5052101;28;20033;-86
2023/04/17 12:16:18;;;;;;;3.65;2.10;;;17.90;70.80;;;;;;5050072;28;20092;-86
2023/04/17 12:18:45;;;;;;;7.40;2.20;;;17.90;70.50;;;;;;5052335;28;20651;-86
2023/04/17 12:21:11;;;;;;;4.78;1.67;;;17.80;70.70;;;;;;5052589;28;20025;-86
2023/04/17 12:23:37;;;;;;;2.83;1.33;;;17.70;72.60;;;;;;5052489;28;20025;-86
2023/04/17 12:26:02;;;;;;;2.58;1.58;;;17.70;72.40;;;;;;5052326;28;20083;-86
2023/04/17 12:28:29;;;;;;;4.43;2.65;;;17.70;72.80;;;;;;5050467;28;20104;-86
2023/04/17 12:30:55;;;;;;;4.22;1.85;;;17.70;71.70;;;;;;5050791;28;20033;-87
2023/04/17 12:33:21;;;;;;;4.97;1.88;;;17.70;71.10;;;;;;5051029;28;20049;-85
2023/04/17 12:35:46;;;;;;;6.60;1.80;;;17.70;71.10;;;;;;5051617;28;20031;-85
2023/04/17 12:38:12;;;;;;;3.10;1.80;;;17.70;71.30;;;;;;5051514;28;20036;-85
2023/04/17 12:40:41;;;;;;;2.15;1.23;;;17.50;72.80;;;;;;5050324;28;20021;-86
2023/04/17 12:43:12;;;;;;;5.07;1.52;;;17.50;71.60;;;;;;5052004;28;20021;-86
2023/04/17 12:45:38;;;;;;;3.35;1.67;;;17.30;73.80;;;;;;5052083;28;20021;-86
2023/04/17 12:48:06;;;;;;;4.25;1.38;;;17.20;75.50;;;;;;5051784;28;20021;-85
2023/04/17 12:50:32;;;;;;;6.45;1.50;;;17.20;74.90;;;;;;5051641;28;20033;-86
2023/04/17 12:52:58;;;;;;;3.33;1.50;;;17.10;77.50;;;;;;5051854;28;20033;-86
2023/04/17 12:55:27;;;;;;;8.05;4.65;;;17.10;78.40;;;;;;5051899;28;20035;-86
2023/04/17 12:57:52;;;;;;;7.07;3.80;;;17.00;80.70;;;;;;5052882;28;20148;-85
2023/04/17 13:00:19;;;;;;;7.70;4.28;;;17.00;81.70;;;;;;5052258;28;20112;-86
2023/04/17 13:02:44;;;;;;;9.05;6.80;;;17.00;83.00;;;;;;5052015;28;20025;-86
2023/04/17 13:05:10;;;;;;;6.50;2.90;;;16.90;85.10;;;;;;5051584;28;20032;-85
2023/04/17 13:07:36;;;;;;;4.60;2.60;;;16.80;86.30;;;;;;5051756;28;20032;-85